sensor_id;sensor_type;location;lat;lon;timestamp;P1;durP1;ratioP1;P2;durP2;ratioP2
69953;SDS011;57276;51.364;12.376;2023-03-01T00:03:42;20.93;;;9.53;;
69953;SDS011;57276;51.364;12.376;2023-03-01T00:09:43;16.65;;;7.82;;
69953;SDS011;57276;51.364;12.376;2023-03-01T00:15:47;22.13;;;9.33;;
69953;SDS011;57276;51.364;12.376;2023-03-01T00:21:48;21.90;;;8.68;;
69953;SDS011;57276;51.364;12.376;2023-03-01T00:27:50;17.83;;;8.20;;
69953;SDS011;57276;51.364;12.376;2023-03-01T00:33:52;17.40;;;8.10;;
69953;SDS011;57276;51.364;12.376;2023-03-01T00:39:54;17.77;;;8.35;;
69953;SDS011;57276;51.364;12.376;2023-03-01T00:45:55;17.47;;;7.37;;
69953;SDS011;57276;51.364;12.376;2023-03-01T00:51:57;14.07;;;6.80;;
69953;SDS011;57276;51.364;12.376;2023-03-01T00:57:59;14.60;;;6.68;;
69953;SDS011;57276;51.364;12.376;2023-03-01T01:04:04;14.03;;;6.30;;
69953;SDS011;57276;51.364;12.376;2023-03-01T01:10:06;14.93;;;6.22;;
69953;SDS011;57276;51.364;12.376;2023-03-01T01:16:08;16.47;;;7.03;;
69953;SDS011;57276;51.364;12.376;2023-03-01T01:22:09;19.40;;;7.20;;
69953;SDS011;57276;51.364;12.376;2023-03-01T01:28:11;14.30;;;6.80;;
69953;SDS011;57276;51.364;12.376;2023-03-01T01:34:15;16.57;;;7.10;;
69953;SDS011;57276;51.364;12.376;2023-03-01T01:40:16;16.65;;;7.75;;
69953;SDS011;57276;51.364;12.376;2023-03-01T01:46:31;19.47;;;7.90;;
69953;SDS011;57276;51.364;12.376;2023-03-01T01:52:34;15.98;;;7.20;;
69953;SDS011;57276;51.364;12.376;2023-03-01T01:58:37;16.08;;;7.57;;
69953;SDS011;57276;51.364;12.376;2023-03-01T02:04:39;14.30;;;6.50;;
69953;SDS011;57276;51.364;12.376;2023-03-01T02:10:41;15.70;;;7.40;;
69953;SDS011;57276;51.364;12.376;2023-03-01T02:16:45;16.23;;;6.83;;
69953;SDS011;57276;51.364;12.376;2023-03-01T02:22:47;15.05;;;6.75;;
69953;SDS011;57276;51.364;12.376;2023-03-01T02:28:49;13.50;;;6.35;;
69953;SDS011;57276;51.364;12.376;2023-03-01T02:34:52;13.27;;;5.60;;
69953;SDS011;57276;51.364;12.376;2023-03-01T02:40:54;14.18;;;6.40;;
69953;SDS011;57276;51.364;12.376;2023-03-01T02:46:58;15.47;;;6.43;;
69953;SDS011;57276;51.364;12.376;2023-03-01T02:59:04;14.32;;;6.20;;
69953;SDS011;57276;51.364;12.376;2023-03-01T03:05:10;15.33;;;6.57;;
69953;SDS011;57276;51.364;12.376;2023-03-01T03:11:12;14.77;;;6.95;;
69953;SDS011;57276;51.364;12.376;2023-03-01T03:17:14;16.00;;;7.10;;
69953;SDS011;57276;51.364;12.376;2023-03-01T03:23:15;14.45;;;6.80;;
69953;SDS011;57276;51.364;12.376;2023-03-01T03:29:17;14.32;;;6.50;;
69953;SDS011;57276;51.364;12.376;2023-03-01T03:35:26;13.37;;;6.30;;
69953;SDS011;57276;51.364;12.376;2023-03-01T03:41:29;19.45;;;6.72;;
69953;SDS011;57276;51.364;12.376;2023-03-01T03:47:30;19.23;;;7.27;;
69953;SDS011;57276;51.364;12.376;2023-03-01T03:53:32;16.17;;;6.30;;
69953;SDS011;57276;51.364;12.376;2023-03-01T03:59:34;17.10;;;6.45;;
69953;SDS011;57276;51.364;12.376;2023-03-01T04:05:35;17.13;;;7.77;;
69953;SDS011;57276;51.364;12.376;2023-03-01T04:11:37;17.13;;;6.90;;
69953;SDS011;57276;51.364;12.376;2023-03-01T04:17:40;15.07;;;7.13;;
69953;SDS011;57276;51.364;12.376;2023-03-01T04:23:42;15.68;;;6.80;;
69953;SDS011;57276;51.364;12.376;2023-03-01T04:29:44;19.58;;;7.32;;
69953;SDS011;57276;51.364;12.376;2023-03-01T04:35:45;16.00;;;7.10;;
69953;SDS011;57276;51.364;12.376;2023-03-01T04:41:47;17.48;;;7.68;;
69953;SDS011;57276;51.364;12.376;2023-03-01T04:47:49;15.67;;;6.83;;
69953;SDS011;57276;51.364;12.376;2023-03-01T04:53:50;22.35;;;8.40;;
69953;SDS011;57276;51.364;12.376;2023-03-01T04:59:52;16.67;;;6.85;;
69953;SDS011;57276;51.364;12.376;2023-03-01T05:05:53;18.17;;;7.57;;
69953;SDS011;57276;51.364;12.376;2023-03-01T05:11:55;15.43;;;7.25;;
69953;SDS011;57276;51.364;12.376;2023-03-01T05:17:57;16.70;;;8.50;;
69953;SDS011;57276;51.364;12.376;2023-03-01T05:24:00;17.08;;;7.57;;
69953;SDS011;57276;51.364;12.376;2023-03-01T05:30:03;15.85;;;7.07;;
69953;SDS011;57276;51.364;12.376;2023-03-01T05:36:14;20.00;;;8.30;;
69953;SDS011;57276;51.364;12.376;2023-03-01T05:42:16;21.50;;;8.77;;
69953;SDS011;57276;51.364;12.376;2023-03-01T05:48:18;16.63;;;8.03;;
69953;SDS011;57276;51.364;12.376;2023-03-01T05:54:21;15.40;;;7.22;;
69953;SDS011;57276;51.364;12.376;2023-03-01T06:00:23;19.13;;;8.30;;
69953;SDS011;57276;51.364;12.376;2023-03-01T06:06:24;17.70;;;8.17;;
69953;SDS011;57276;51.364;12.376;2023-03-01T06:12:35;18.33;;;8.27;;
69953;SDS011;57276;51.364;12.376;2023-03-01T06:18:37;22.50;;;8.50;;
69953;SDS011;57276;51.364;12.376;2023-03-01T06:24:39;20.85;;;8.63;;
69953;SDS011;57276;51.364;12.376;2023-03-01T06:30:40;19.90;;;8.13;;
69953;SDS011;57276;51.364;12.376;2023-03-01T06:36:42;19.30;;;9.07;;
69953;SDS011;57276;51.364;12.376;2023-03-01T06:42:47;21.25;;;8.57;;
69953;SDS011;57276;51.364;12.376;2023-03-01T06:48:50;15.20;;;7.30;;
69953;SDS011;57276;51.364;12.376;2023-03-01T06:54:53;16.00;;;7.85;;
69953;SDS011;57276;51.364;12.376;2023-03-01T07:00:55;21.00;;;7.68;;
69953;SDS011;57276;51.364;12.376;2023-03-01T07:06:56;17.63;;;7.60;;
69953;SDS011;57276;51.364;12.376;2023-03-01T07:12:58;18.67;;;8.07;;
69953;SDS011;57276;51.364;12.376;2023-03-01T07:19:00;18.37;;;7.47;;
69953;SDS011;57276;51.364;12.376;2023-03-01T07:25:01;18.42;;;7.68;;
69953;SDS011;57276;51.364;12.376;2023-03-01T07:31:03;16.60;;;7.03;;
69953;SDS011;57276;51.364;12.376;2023-03-01T07:37:04;17.87;;;8.53;;
69953;SDS011;57276;51.364;12.376;2023-03-01T07:43:06;17.95;;;7.60;;
69953;SDS011;57276;51.364;12.376;2023-03-01T07:49:07;18.80;;;8.10;;
69953;SDS011;57276;51.364;12.376;2023-03-01T07:55:09;18.55;;;7.75;;
69953;SDS011;57276;51.364;12.376;2023-03-01T08:01:12;20.45;;;8.85;;
69953;SDS011;57276;51.364;12.376;2023-03-01T08:07:14;19.93;;;8.60;;
69953;SDS011;57276;51.364;12.376;2023-03-01T08:13:16;21.45;;;9.10;;
69953;SDS011;57276;51.364;12.376;2023-03-01T08:19:17;21.97;;;9.30;;
69953;SDS011;57276;51.364;12.376;2023-03-01T08:25:19;23.05;;;9.57;;
69953;SDS011;57276;51.364;12.376;2023-03-01T08:31:21;19.38;;;8.55;;
69953;SDS011;57276;51.364;12.376;2023-03-01T08:37:23;20.00;;;8.37;;
69953;SDS011;57276;51.364;12.376;2023-03-01T08:43:25;20.50;;;9.75;;
69953;SDS011;57276;51.364;12.376;2023-03-01T08:49:26;20.93;;;9.37;;
69953;SDS011;57276;51.364;12.376;2023-03-01T08:55:28;21.35;;;9.45;;
69953;SDS011;57276;51.364;12.376;2023-03-01T09:01:29;20.08;;;9.10;;
69953;SDS011;57276;51.364;12.376;2023-03-01T09:07:31;22.83;;;9.97;;
69953;SDS011;57276;51.364;12.376;2023-03-01T09:13:32;23.42;;;9.95;;
69953;SDS011;57276;51.364;12.376;2023-03-01T09:19:34;22.03;;;10.03;;
69953;SDS011;57276;51.364;12.376;2023-03-01T09:25:35;27.02;;;10.57;;
69953;SDS011;57276;51.364;12.376;2023-03-01T09:31:37;25.27;;;10.73;;
69953;SDS011;57276;51.364;12.376;2023-03-01T09:37:38;25.43;;;10.43;;
69953;SDS011;57276;51.364;12.376;2023-03-01T09:43:48;25.08;;;10.90;;
69953;SDS011;57276;51.364;12.376;2023-03-01T09:50:00;24.40;;;10.33;;
69953;SDS011;57276;51.364;12.376;2023-03-01T09:56:11;22.83;;;9.95;;
69953;SDS011;57276;51.364;12.376;2023-03-01T10:02:24;23.15;;;10.48;;
69953;SDS011;57276;51.364;12.376;2023-03-01T10:08:31;24.50;;;10.13;;
69953;SDS011;57276;51.364;12.376;2023-03-01T10:14:43;21.75;;;10.07;;
69953;SDS011;57276;51.364;12.376;2023-03-01T10:26:56;18.95;;;9.25;;
69953;SDS011;57276;51.364;12.376;2023-03-01T10:32:59;20.45;;;10.13;;
69953;SDS011;57276;51.364;12.376;2023-03-01T10:39:03;21.43;;;9.47;;
69953;SDS011;57276;51.364;12.376;2023-03-01T10:51:17;20.37;;;9.00;;
69953;SDS011;57276;51.364;12.376;2023-03-01T10:57:52;21.25;;;9.52;;
69953;SDS011;57276;51.364;12.376;2023-03-01T11:03:55;22.92;;;10.50;;
69953;SDS011;57276;51.364;12.376;2023-03-01T11:10:12;20.47;;;9.73;;
69953;SDS011;57276;51.364;12.376;2023-03-01T11:16:22;23.05;;;10.52;;
69953;SDS011;57276;51.364;12.376;2023-03-01T11:22:25;18.77;;;9.40;;
69953;SDS011;57276;51.364;12.376;2023-03-01T11:28:27;21.17;;;10.23;;
69953;SDS011;57276;51.364;12.376;2023-03-01T11:34:40;20.60;;;10.02;;
69953;SDS011;57276;51.364;12.376;2023-03-01T11:40:44;21.60;;;9.90;;
69953;SDS011;57276;51.364;12.376;2023-03-01T11:47:05;21.52;;;10.63;;
69953;SDS011;57276;51.364;12.376;2023-03-01T11:53:15;18.43;;;9.27;;
69953;SDS011;57276;51.364;12.376;2023-03-01T11:59:23;21.00;;;10.65;;
69953;SDS011;57276;51.364;12.376;2023-03-01T12:11:56;21.13;;;9.23;;
69953;SDS011;57276;51.364;12.376;2023-03-01T12:18:04;18.92;;;9.02;;
69953;SDS011;57276;51.364;12.376;2023-03-01T12:24:16;18.50;;;8.40;;
69953;SDS011;57276;51.364;12.376;2023-03-01T12:30:31;17.30;;;8.20;;
69953;SDS011;57276;51.364;12.376;2023-03-01T12:36:44;17.83;;;8.25;;
69953;SDS011;57276;51.364;12.376;2023-03-01T12:42:55;18.43;;;8.87;;
69953;SDS011;57276;51.364;12.376;2023-03-01T12:49:06;17.35;;;8.93;;
69953;SDS011;57276;51.364;12.376;2023-03-01T12:55:43;19.30;;;9.70;;
69953;SDS011;57276;51.364;12.376;2023-03-01T13:01:56;19.23;;;8.77;;
69953;SDS011;57276;51.364;12.376;2023-03-01T13:08:09;16.63;;;8.32;;
69953;SDS011;57276;51.364;12.376;2023-03-01T13:20:31;19.40;;;9.77;;
69953;SDS011;57276;51.364;12.376;2023-03-01T13:26:38;18.67;;;9.97;;
69953;SDS011;57276;51.364;12.376;2023-03-01T13:33:09;17.88;;;9.70;;
69953;SDS011;57276;51.364;12.376;2023-03-01T13:45:34;15.27;;;8.57;;
69953;SDS011;57276;51.364;12.376;2023-03-01T13:51:37;16.67;;;8.98;;
69953;SDS011;57276;51.364;12.376;2023-03-01T13:57:39;13.20;;;7.80;;
69953;SDS011;57276;51.364;12.376;2023-03-01T14:03:41;11.65;;;6.88;;
69953;SDS011;57276;51.364;12.376;2023-03-01T14:09:43;13.45;;;7.40;;
69953;SDS011;57276;51.364;12.376;2023-03-01T14:15:49;12.73;;;6.33;;
69953;SDS011;57276;51.364;12.376;2023-03-01T14:22:37;11.73;;;6.22;;
69953;SDS011;57276;51.364;12.376;2023-03-01T14:28:20;13.60;;;6.40;;
69953;SDS011;57276;51.364;12.376;2023-03-01T14:34:23;11.00;;;6.22;;
69953;SDS011;57276;51.364;12.376;2023-03-01T14:40:29;12.35;;;5.72;;
69953;SDS011;57276;51.364;12.376;2023-03-01T14:52:37;12.05;;;5.28;;
69953;SDS011;57276;51.364;12.376;2023-03-01T14:58:39;11.97;;;6.23;;
69953;SDS011;57276;51.364;12.376;2023-03-01T15:04:41;13.57;;;6.07;;
69953;SDS011;57276;51.364;12.376;2023-03-01T15:10:54;13.07;;;5.72;;
69953;SDS011;57276;51.364;12.376;2023-03-01T15:16:56;11.47;;;5.93;;
69953;SDS011;57276;51.364;12.376;2023-03-01T15:22:58;15.75;;;6.03;;
69953;SDS011;57276;51.364;12.376;2023-03-01T15:29:00;11.20;;;5.47;;
69953;SDS011;57276;51.364;12.376;2023-03-01T15:41:24;12.07;;;5.43;;
69953;SDS011;57276;51.364;12.376;2023-03-01T15:47:28;11.07;;;4.97;;
69953;SDS011;57276;51.364;12.376;2023-03-01T15:53:30;10.90;;;4.88;;
69953;SDS011;57276;51.364;12.376;2023-03-01T15:59:32;10.53;;;5.00;;
69953;SDS011;57276;51.364;12.376;2023-03-01T16:05:34;10.20;;;4.60;;
69953;SDS011;57276;51.364;12.376;2023-03-01T16:11:36;12.45;;;4.93;;
69953;SDS011;57276;51.364;12.376;2023-03-01T16:17:38;11.33;;;4.77;;
69953;SDS011;57276;51.364;12.376;2023-03-01T16:23:40;11.52;;;5.30;;
69953;SDS011;57276;51.364;12.376;2023-03-01T16:29:41;13.67;;;5.47;;
69953;SDS011;57276;51.364;12.376;2023-03-01T16:35:43;10.50;;;4.60;;
69953;SDS011;57276;51.364;12.376;2023-03-01T16:41:45;12.85;;;5.20;;
69953;SDS011;57276;51.364;12.376;2023-03-01T16:47:46;15.20;;;5.73;;
69953;SDS011;57276;51.364;12.376;2023-03-01T16:53:49;13.02;;;5.53;;
69953;SDS011;57276;51.364;12.376;2023-03-01T16:59:51;15.57;;;5.93;;
69953;SDS011;57276;51.364;12.376;2023-03-01T17:05:55;13.93;;;6.20;;
69953;SDS011;57276;51.364;12.376;2023-03-01T17:11:56;12.98;;;5.90;;
69953;SDS011;57276;51.364;12.376;2023-03-01T17:17:59;12.60;;;5.70;;
69953;SDS011;57276;51.364;12.376;2023-03-01T17:24:01;15.05;;;6.45;;
69953;SDS011;57276;51.364;12.376;2023-03-01T17:30:04;12.43;;;5.97;;
69953;SDS011;57276;51.364;12.376;2023-03-01T17:36:06;11.63;;;4.70;;
69953;SDS011;57276;51.364;12.376;2023-03-01T17:42:08;10.25;;;4.82;;
69953;SDS011;57276;51.364;12.376;2023-03-01T17:48:09;12.60;;;4.77;;
69953;SDS011;57276;51.364;12.376;2023-03-01T17:54:11;11.70;;;5.15;;
69953;SDS011;57276;51.364;12.376;2023-03-01T18:00:13;11.05;;;4.80;;
69953;SDS011;57276;51.364;12.376;2023-03-01T18:06:19;13.30;;;6.57;;
69953;SDS011;57276;51.364;12.376;2023-03-01T18:12:21;12.73;;;5.70;;
69953;SDS011;57276;51.364;12.376;2023-03-01T18:18:23;11.40;;;5.30;;
69953;SDS011;57276;51.364;12.376;2023-03-01T18:24:25;13.68;;;6.18;;
69953;SDS011;57276;51.364;12.376;2023-03-01T18:30:27;16.50;;;6.78;;
69953;SDS011;57276;51.364;12.376;2023-03-01T18:36:30;16.63;;;7.20;;
69953;SDS011;57276;51.364;12.376;2023-03-01T18:42:32;14.23;;;6.60;;
69953;SDS011;57276;51.364;12.376;2023-03-01T18:48:34;12.57;;;5.60;;
69953;SDS011;57276;51.364;12.376;2023-03-01T18:54:37;11.05;;;5.90;;
69953;SDS011;57276;51.364;12.376;2023-03-01T19:00:38;13.13;;;5.65;;
69953;SDS011;57276;51.364;12.376;2023-03-01T19:06:40;11.17;;;5.00;;
69953;SDS011;57276;51.364;12.376;2023-03-01T19:12:42;13.18;;;4.97;;
69953;SDS011;57276;51.364;12.376;2023-03-01T19:18:44;13.00;;;5.27;;
69953;SDS011;57276;51.364;12.376;2023-03-01T19:24:51;10.98;;;5.22;;
69953;SDS011;57276;51.364;12.376;2023-03-01T19:30:56;11.32;;;5.35;;
69953;SDS011;57276;51.364;12.376;2023-03-01T19:36:58;11.53;;;5.13;;
69953;SDS011;57276;51.364;12.376;2023-03-01T19:43:00;12.93;;;5.07;;
69953;SDS011;57276;51.364;12.376;2023-03-01T19:49:03;13.43;;;5.80;;
69953;SDS011;57276;51.364;12.376;2023-03-01T19:55:06;13.38;;;4.90;;
69953;SDS011;57276;51.364;12.376;2023-03-01T20:01:14;12.88;;;5.72;;
69953;SDS011;57276;51.364;12.376;2023-03-01T20:07:17;12.57;;;5.50;;
69953;SDS011;57276;51.364;12.376;2023-03-01T20:13:20;9.63;;;5.03;;
69953;SDS011;57276;51.364;12.376;2023-03-01T20:19:22;12.93;;;4.93;;
69953;SDS011;57276;51.364;12.376;2023-03-01T20:25:27;11.65;;;4.63;;
69953;SDS011;57276;51.364;12.376;2023-03-01T20:31:30;12.50;;;5.00;;
69953;SDS011;57276;51.364;12.376;2023-03-01T20:37:32;11.30;;;5.17;;
69953;SDS011;57276;51.364;12.376;2023-03-01T20:43:34;13.40;;;5.78;;
69953;SDS011;57276;51.364;12.376;2023-03-01T20:49:36;11.67;;;5.73;;
69953;SDS011;57276;51.364;12.376;2023-03-01T20:55:39;13.85;;;5.93;;
69953;SDS011;57276;51.364;12.376;2023-03-01T21:01:41;12.68;;;5.90;;
69953;SDS011;57276;51.364;12.376;2023-03-01T21:07:42;14.13;;;5.87;;
69953;SDS011;57276;51.364;12.376;2023-03-01T21:13:45;11.70;;;5.47;;
69953;SDS011;57276;51.364;12.376;2023-03-01T21:19:47;13.83;;;6.17;;
69953;SDS011;57276;51.364;12.376;2023-03-01T21:26:02;13.73;;;6.15;;
69953;SDS011;57276;51.364;12.376;2023-03-01T21:32:05;13.80;;;5.68;;
69953;SDS011;57276;51.364;12.376;2023-03-01T21:38:07;13.43;;;5.93;;
69953;SDS011;57276;51.364;12.376;2023-03-01T21:44:09;10.65;;;4.97;;
69953;SDS011;57276;51.364;12.376;2023-03-01T21:50:10;11.43;;;5.30;;
69953;SDS011;57276;51.364;12.376;2023-03-01T21:56:16;13.57;;;5.80;;
69953;SDS011;57276;51.364;12.376;2023-03-01T22:02:18;11.98;;;5.55;;
69953;SDS011;57276;51.364;12.376;2023-03-01T22:08:19;13.30;;;5.53;;
69953;SDS011;57276;51.364;12.376;2023-03-01T22:14:21;12.95;;;6.07;;
69953;SDS011;57276;51.364;12.376;2023-03-01T22:20:25;12.53;;;5.37;;
69953;SDS011;57276;51.364;12.376;2023-03-01T22:26:28;12.82;;;5.88;;
69953;SDS011;57276;51.364;12.376;2023-03-01T22:32:30;12.30;;;5.53;;
69953;SDS011;57276;51.364;12.376;2023-03-01T22:38:31;14.90;;;6.23;;
69953;SDS011;57276;51.364;12.376;2023-03-01T22:44:33;17.65;;;7.22;;
69953;SDS011;57276;51.364;12.376;2023-03-01T22:50:34;13.83;;;6.30;;
69953;SDS011;57276;51.364;12.376;2023-03-01T22:56:36;13.55;;;6.97;;
69953;SDS011;57276;51.364;12.376;2023-03-01T23:02:38;14.65;;;6.60;;
69953;SDS011;57276;51.364;12.376;2023-03-01T23:08:42;15.17;;;5.60;;
69953;SDS011;57276;51.364;12.376;2023-03-01T23:14:44;13.88;;;5.80;;
69953;SDS011;57276;51.364;12.376;2023-03-01T23:20:45;13.50;;;5.80;;
69953;SDS011;57276;51.364;12.376;2023-03-01T23:26:47;16.80;;;6.30;;
69953;SDS011;57276;51.364;12.376;2023-03-01T23:32:55;12.63;;;6.30;;
69953;SDS011;57276;51.364;12.376;2023-03-01T23:39:02;13.37;;;5.73;;
69953;SDS011;57276;51.364;12.376;2023-03-01T23:45:04;14.23;;;6.78;;
69953;SDS011;57276;51.364;12.376;2023-03-01T23:51:08;14.33;;;6.80;;
69953;SDS011;57276;51.364;12.376;2023-03-01T23:57:09;16.27;;;6.18;;
